createdAt,value
2022-08-31T00:00:09.611Z,22.68
2022-08-31T00:01:09.594Z,22.72
2022-08-31T00:02:09.646Z,22.67
2022-08-31T00:03:09.576Z,22.54
2022-08-31T00:04:09.597Z,22.60
2022-08-31T00:05:09.539Z,22.59
2022-08-31T00:06:09.528Z,22.57
2022-08-31T00:07:09.556Z,22.54
2022-08-31T00:08:09.526Z,22.72
2022-08-31T00:09:09.495Z,22.53
2022-08-31T00:10:09.511Z,22.49
2022-08-31T00:11:09.476Z,22.39
2022-08-31T00:12:09.455Z,22.37
2022-08-31T00:13:09.466Z,22.37
2022-08-31T00:14:13.038Z,22.10
2022-08-31T00:15:09.429Z,22.16
2022-08-31T00:16:09.480Z,21.95
2022-08-31T00:17:09.408Z,21.90
2022-08-31T00:18:09.408Z,21.88
2022-08-31T00:19:09.379Z,21.66
2022-08-31T00:20:09.377Z,21.59
2022-08-31T00:21:10.363Z,21.41
2022-08-31T00:22:09.372Z,21.48
2022-08-31T00:23:09.363Z,21.24
2022-08-31T00:24:09.333Z,21.24
2022-08-31T00:25:09.360Z,21.24
2022-08-31T00:26:09.301Z,21.26
2022-08-31T00:27:09.295Z,21.29
2022-08-31T00:28:09.294Z,21.24
2022-08-31T00:29:09.273Z,21.20
2022-08-31T00:30:09.264Z,21.11
2022-08-31T00:31:09.254Z,21.24
2022-08-31T00:32:09.318Z,21.09
2022-08-31T00:33:09.245Z,21.16
2022-08-31T00:34:09.223Z,21.13
2022-08-31T00:35:09.202Z,21.09
2022-08-31T00:36:09.201Z,20.99
2022-08-31T00:37:09.179Z,21.02
2022-08-31T00:38:09.179Z,20.96
2022-08-31T00:39:09.163Z,20.99
2022-08-31T00:40:09.235Z,20.89
2022-08-31T00:41:09.145Z,20.83
2022-08-31T00:42:09.129Z,20.89
2022-08-31T00:43:09.127Z,20.80
2022-08-31T00:44:09.106Z,20.80
2022-08-31T00:45:09.096Z,20.74
2022-08-31T00:46:09.152Z,20.76
2022-08-31T00:47:09.072Z,20.71
2022-08-31T00:48:09.075Z,20.62
2022-08-31T00:49:09.052Z,20.64
2022-08-31T00:50:09.031Z,20.49
2022-08-31T00:51:09.025Z,20.42
2022-08-31T00:52:09.016Z,20.38
2022-08-31T00:53:09.016Z,20.23
2022-08-31T00:54:08.985Z,20.30
2022-08-31T00:55:08.973Z,20.28
2022-08-31T00:56:08.961Z,20.20
2022-08-31T00:57:08.952Z,20.20
2022-08-31T00:58:08.957Z,20.20
2022-08-31T00:59:08.929Z,20.20
2022-08-31T01:00:08.942Z,20.18
2022-08-31T01:01:08.994Z,20.02
2022-08-31T01:02:08.991Z,20.10
2022-08-31T01:03:08.907Z,20.08
2022-08-31T01:04:08.894Z,20.12
2022-08-31T01:05:08.861Z,20.12
2022-08-31T01:06:08.851Z,20.02
2022-08-31T01:07:08.838Z,19.91
2022-08-31T01:08:08.854Z,19.95
2022-08-31T01:09:08.833Z,19.98
2022-08-31T01:10:08.804Z,20.03
2022-08-31T01:11:08.800Z,19.93
2022-08-31T01:12:08.782Z,19.86
2022-08-31T01:13:08.778Z,19.78
2022-08-31T01:14:08.784Z,19.88
2022-08-31T01:15:08.749Z,19.86
2022-08-31T01:16:08.888Z,19.83
2022-08-31T01:17:08.731Z,19.79
2022-08-31T01:18:08.713Z,19.72
2022-08-31T01:19:08.716Z,19.70
2022-08-31T01:20:08.692Z,19.66
2022-08-31T01:21:08.689Z,19.63
2022-08-31T01:22:08.668Z,19.76
2022-08-31T01:23:08.664Z,19.69
2022-08-31T01:24:08.668Z,19.66
2022-08-31T01:25:08.637Z,19.66
2022-08-31T01:26:08.628Z,19.72
2022-08-31T01:27:08.619Z,19.66
2022-08-31T01:28:08.605Z,19.66
2022-08-31T01:29:08.616Z,19.66
2022-08-31T01:30:08.579Z,19.43
2022-08-31T01:31:08.613Z,19.51
2022-08-31T01:32:08.567Z,19.48
2022-08-31T01:33:08.551Z,19.38
2022-08-31T01:34:08.552Z,19.47
2022-08-31T01:35:09.583Z,19.42
2022-08-31T01:36:09.666Z,19.47
2022-08-31T01:37:08.507Z,19.33
2022-08-31T01:38:08.490Z,19.39
2022-08-31T01:39:08.512Z,19.47
2022-08-31T01:40:08.639Z,19.36
2022-08-31T01:41:08.461Z,19.35
2022-08-31T01:42:08.443Z,19.40
2022-08-31T01:43:08.440Z,19.38
2022-08-31T01:44:08.440Z,19.42
2022-08-31T01:45:08.408Z,19.21
2022-08-31T01:46:09.095Z,19.38
2022-08-31T01:47:08.454Z,19.35
2022-08-31T01:48:08.381Z,19.23
2022-08-31T01:49:08.369Z,19.35
2022-08-31T01:50:08.376Z,19.31
2022-08-31T01:51:08.339Z,19.17
2022-08-31T01:52:08.343Z,19.28
2022-08-31T01:53:08.317Z,19.21
2022-08-31T01:54:08.307Z,19.17
2022-08-31T01:55:08.321Z,19.05
2022-08-31T01:56:08.296Z,19.10
2022-08-31T01:57:08.272Z,19.08
2022-08-31T01:58:08.263Z,19.13
2022-08-31T01:59:08.595Z,19.15
2022-08-31T02:00:08.257Z,19.11
2022-08-31T02:01:17.227Z,19.11
2022-08-31T02:02:09.297Z,19.14
2022-08-31T02:03:08.206Z,19.11
2022-08-31T02:04:08.199Z,19.20
2022-08-31T02:05:08.202Z,19.13
2022-08-31T02:06:08.939Z,19.14
2022-08-31T02:07:08.170Z,19.14
2022-08-31T02:08:08.160Z,19.08
2022-08-31T02:09:08.146Z,19.17
2022-08-31T02:10:08.158Z,19.08
2022-08-31T02:11:08.125Z,18.95
2022-08-31T02:12:08.106Z,18.94
2022-08-31T02:13:08.094Z,19.02
2022-08-31T02:14:08.084Z,19.02
2022-08-31T02:15:08.094Z,18.84
2022-08-31T02:16:08.162Z,18.91
2022-08-31T02:17:08.049Z,18.82
2022-08-31T02:18:08.040Z,18.86
2022-08-31T02:19:08.052Z,18.87
2022-08-31T02:20:08.039Z,18.74
2022-08-31T02:21:08.006Z,18.73
2022-08-31T02:22:07.995Z,18.83
2022-08-31T02:23:07.984Z,18.70
2022-08-31T02:24:07.990Z,18.62
2022-08-31T02:25:08.538Z,18.68
2022-08-31T02:26:07.957Z,18.77
2022-08-31T02:27:07.945Z,18.73
2022-08-31T02:28:07.937Z,18.76
2022-08-31T02:29:07.951Z,18.77
2022-08-31T02:30:07.929Z,18.74
2022-08-31T02:31:07.961Z,18.82
2022-08-31T02:32:07.886Z,18.86
2022-08-31T02:33:08.869Z,18.83
2022-08-31T02:34:07.870Z,18.82
2022-08-31T02:35:07.876Z,18.90
2022-08-31T02:36:07.842Z,18.86
2022-08-31T02:37:07.824Z,18.84
2022-08-31T02:38:07.821Z,18.82
2022-08-31T02:39:07.812Z,18.83
2022-08-31T02:40:07.876Z,18.91
2022-08-31T02:41:07.787Z,18.82
2022-08-31T02:42:07.777Z,18.80
2022-08-31T02:43:07.759Z,18.76
2022-08-31T02:44:07.756Z,18.82
2022-08-31T02:45:07.785Z,18.84
2022-08-31T02:46:07.800Z,18.82
2022-08-31T02:47:07.721Z,18.79
2022-08-31T02:48:07.707Z,18.82
2022-08-31T02:49:07.702Z,18.76
2022-08-31T02:50:07.697Z,18.73
2022-08-31T02:51:07.680Z,18.74
2022-08-31T02:52:07.654Z,18.79
2022-08-31T02:53:07.652Z,18.77
2022-08-31T02:54:07.637Z,18.72
2022-08-31T02:55:07.626Z,18.79
2022-08-31T02:56:07.631Z,18.76
2022-08-31T02:57:07.607Z,18.87
2022-08-31T02:58:07.588Z,18.72
2022-08-31T02:59:07.605Z,18.72
2022-08-31T03:00:07.567Z,18.74
2022-08-31T03:01:07.622Z,18.86
2022-08-31T03:02:07.751Z,18.80
2022-08-31T03:03:07.579Z,18.73
2022-08-31T03:04:07.529Z,18.80
2022-08-31T03:05:07.517Z,18.83
2022-08-31T03:06:07.519Z,18.67
2022-08-31T03:07:07.487Z,18.83
2022-08-31T03:08:07.543Z,18.79
2022-08-31T03:09:07.474Z,18.84
2022-08-31T03:10:07.460Z,18.87
2022-08-31T03:11:07.473Z,18.82
2022-08-31T03:12:07.446Z,18.79
2022-08-31T03:13:07.421Z,18.82
2022-08-31T03:14:07.420Z,18.87
2022-08-31T03:15:07.405Z,18.73
2022-08-31T03:16:07.484Z,18.87
2022-08-31T03:17:07.384Z,18.90
2022-08-31T03:18:07.367Z,18.82
2022-08-31T03:19:07.374Z,18.95
2022-08-31T03:20:07.348Z,18.82
2022-08-31T03:21:07.358Z,18.91
2022-08-31T03:22:07.320Z,18.84
2022-08-31T03:23:07.319Z,18.86
2022-08-31T03:24:07.303Z,18.92
2022-08-31T03:25:07.292Z,18.84
2022-08-31T03:26:07.296Z,18.86
2022-08-31T03:27:07.263Z,18.90
2022-08-31T03:28:07.251Z,19.01
2022-08-31T03:29:07.251Z,18.84
2022-08-31T03:30:07.246Z,18.86
2022-08-31T03:31:07.296Z,18.77
2022-08-31T03:32:07.206Z,18.83
2022-08-31T03:33:07.208Z,18.87
2022-08-31T03:34:07.203Z,18.94
2022-08-31T03:35:07.184Z,18.87
2022-08-31T03:36:07.174Z,18.86
2022-08-31T03:37:07.158Z,18.87
2022-08-31T03:38:07.141Z,18.95
2022-08-31T03:39:07.130Z,18.87
2022-08-31T03:40:07.182Z,18.90
2022-08-31T03:41:07.129Z,18.95
2022-08-31T03:42:07.103Z,18.94
2022-08-31T03:43:07.090Z,18.94
2022-08-31T03:44:07.073Z,18.92
2022-08-31T03:45:07.065Z,19.02
2022-08-31T03:46:11.778Z,18.99
2022-08-31T03:47:08.041Z,18.86
2022-08-31T03:48:11.999Z,18.95
2022-08-31T03:49:08.015Z,18.95
2022-08-31T03:50:07.006Z,18.97
2022-08-31T03:51:07.028Z,18.90
2022-08-31T03:52:06.982Z,18.99
2022-08-31T03:53:06.983Z,18.86
2022-08-31T03:54:06.970Z,18.86
2022-08-31T03:55:06.956Z,18.92
2022-08-31T03:56:06.966Z,18.90
2022-08-31T03:57:06.927Z,18.90
2022-08-31T03:58:06.921Z,18.91
2022-08-31T03:59:06.912Z,18.95
2022-08-31T04:00:06.900Z,18.82
2022-08-31T04:01:06.997Z,18.87
2022-08-31T04:02:07.015Z,18.92
2022-08-31T04:03:06.968Z,18.80
2022-08-31T04:04:06.853Z,18.73
2022-08-31T04:05:06.838Z,18.76
2022-08-31T04:06:06.850Z,18.76
2022-08-31T04:07:06.821Z,18.68
2022-08-31T04:08:06.815Z,18.74
2022-08-31T04:09:06.811Z,18.73
2022-08-31T04:10:06.788Z,18.70
2022-08-31T04:11:06.787Z,18.70
2022-08-31T04:12:06.763Z,18.62
2022-08-31T04:13:06.756Z,18.65
2022-08-31T04:14:06.741Z,18.61
2022-08-31T04:15:06.725Z,18.65
2022-08-31T04:16:06.752Z,18.65
2022-08-31T04:17:06.713Z,18.57
2022-08-31T04:18:06.692Z,18.58
2022-08-31T04:19:08.061Z,18.54
2022-08-31T04:20:06.675Z,18.62
2022-08-31T04:21:06.685Z,18.62
2022-08-31T04:22:06.649Z,18.57
2022-08-31T04:23:06.700Z,18.64
2022-08-31T04:24:06.629Z,18.68
2022-08-31T04:25:06.620Z,18.65
2022-08-31T04:26:06.623Z,18.59
2022-08-31T04:27:06.598Z,18.61
2022-08-31T04:28:06.582Z,18.64
2022-08-31T04:29:10.825Z,18.57
2022-08-31T04:30:07.570Z,18.62
2022-08-31T04:31:06.620Z,18.54
2022-08-31T04:32:06.548Z,18.49
2022-08-31T04:33:06.531Z,18.55
2022-08-31T04:34:06.512Z,18.49
2022-08-31T04:35:06.501Z,18.47
2022-08-31T04:36:06.507Z,18.46
2022-08-31T04:37:06.479Z,18.46
2022-08-31T04:38:06.478Z,18.50
2022-08-31T04:39:06.457Z,18.49
2022-08-31T04:40:06.483Z,18.44
2022-08-31T04:41:06.456Z,18.52
2022-08-31T04:42:06.428Z,18.47
2022-08-31T04:43:06.414Z,18.50
2022-08-31T04:44:06.409Z,18.37
2022-08-31T04:45:06.391Z,18.39
2022-08-31T04:46:06.448Z,18.50
2022-08-31T04:47:06.383Z,18.39
2022-08-31T04:48:06.361Z,18.44
2022-08-31T04:49:06.351Z,18.36
2022-08-31T04:50:06.331Z,18.47
2022-08-31T04:51:06.332Z,18.52
2022-08-31T04:52:06.325Z,18.34
2022-08-31T04:53:06.310Z,18.43
2022-08-31T04:54:06.298Z,18.44
2022-08-31T04:55:06.276Z,18.47
2022-08-31T04:56:06.263Z,18.37
2022-08-31T04:57:06.268Z,18.46
2022-08-31T04:58:06.246Z,18.33
2022-08-31T04:59:06.236Z,18.40
2022-08-31T05:00:06.225Z,18.44
2022-08-31T05:01:06.254Z,18.37
2022-08-31T05:02:06.321Z,18.37
2022-08-31T05:03:06.186Z,18.39
2022-08-31T05:04:06.174Z,18.40
2022-08-31T05:05:06.170Z,18.39
2022-08-31T05:06:06.183Z,18.42
2022-08-31T05:07:06.151Z,18.49
2022-08-31T05:08:06.141Z,18.42
2022-08-31T05:09:06.114Z,18.49
2022-08-31T05:10:06.109Z,18.55
2022-08-31T05:11:06.105Z,18.44
2022-08-31T05:12:06.102Z,18.52
2022-08-31T05:13:06.078Z,18.52
2022-08-31T05:14:06.069Z,18.50
2022-08-31T05:15:06.049Z,18.49
2022-08-31T05:16:06.101Z,18.47
2022-08-31T05:17:06.049Z,18.43
2022-08-31T05:18:07.019Z,18.44
2022-08-31T05:19:06.007Z,18.44
2022-08-31T05:20:05.996Z,18.50
2022-08-31T05:21:05.988Z,18.58
2022-08-31T05:22:05.993Z,18.52
2022-08-31T05:23:05.969Z,18.46
2022-08-31T05:24:05.954Z,18.49
2022-08-31T05:25:05.944Z,18.58
2022-08-31T05:26:05.927Z,18.49
2022-08-31T05:27:05.925Z,18.55
2022-08-31T05:28:05.910Z,18.39
2022-08-31T05:29:05.890Z,18.47
2022-08-31T05:30:05.887Z,18.54
2022-08-31T05:31:05.933Z,18.43
2022-08-31T05:32:05.876Z,18.49
2022-08-31T05:33:05.847Z,18.52
2022-08-31T05:34:05.870Z,18.47
2022-08-31T05:35:05.824Z,18.42
2022-08-31T05:36:05.815Z,18.57
2022-08-31T05:37:05.810Z,18.55
2022-08-31T05:38:05.792Z,18.62
2022-08-31T05:39:05.780Z,18.55
2022-08-31T05:40:05.795Z,18.58
2022-08-31T05:41:05.753Z,18.49
2022-08-31T05:42:05.770Z,18.52
2022-08-31T05:43:05.738Z,18.58
2022-08-31T05:44:05.718Z,18.58
2022-08-31T05:45:05.722Z,18.55
2022-08-31T05:46:10.048Z,18.57
2022-08-31T05:47:05.774Z,18.61
2022-08-31T05:48:05.681Z,18.62
2022-08-31T05:49:05.671Z,18.65
2022-08-31T05:50:08.328Z,18.70
2022-08-31T05:51:05.650Z,18.67
2022-08-31T05:52:05.647Z,18.64
2022-08-31T05:53:05.623Z,18.70
2022-08-31T05:54:05.608Z,18.74
2022-08-31T05:55:05.603Z,18.72
2022-08-31T05:56:05.583Z,18.82
2022-08-31T05:57:05.591Z,18.79
2022-08-31T05:58:05.557Z,18.73
2022-08-31T05:59:05.552Z,18.77
2022-08-31T06:00:05.541Z,18.80
2022-08-31T06:01:05.526Z,18.80
2022-08-31T06:02:05.569Z,18.74
2022-08-31T06:03:05.503Z,18.82
2022-08-31T06:04:05.499Z,18.80
2022-08-31T06:05:05.527Z,18.80
2022-08-31T06:06:05.476Z,18.83
2022-08-31T06:07:05.475Z,18.68
2022-08-31T06:08:05.451Z,18.73
2022-08-31T06:09:05.442Z,18.82
2022-08-31T06:10:05.431Z,18.98
2022-08-31T06:11:05.421Z,18.97
2022-08-31T06:12:05.451Z,19.06
2022-08-31T06:13:05.391Z,19.14
2022-08-31T06:14:05.380Z,19.14
2022-08-31T06:15:05.408Z,19.14
2022-08-31T06:16:05.478Z,19.18
2022-08-31T06:17:05.354Z,19.18
2022-08-31T06:18:05.363Z,19.14
2022-08-31T06:19:05.334Z,19.21
2022-08-31T06:20:05.317Z,19.14
2022-08-31T06:21:05.302Z,19.25
2022-08-31T06:22:05.288Z,19.21
2022-08-31T06:23:05.293Z,19.33
2022-08-31T06:24:05.270Z,19.36
2022-08-31T06:25:05.262Z,19.28
2022-08-31T06:26:05.251Z,19.35
2022-08-31T06:27:05.233Z,19.31
2022-08-31T06:28:05.240Z,19.28
2022-08-31T06:29:05.209Z,19.31
2022-08-31T06:30:07.257Z,19.24
2022-08-31T06:31:05.299Z,19.35
2022-08-31T06:32:05.195Z,19.32
2022-08-31T06:33:05.184Z,19.36
2022-08-31T06:34:05.248Z,19.29
2022-08-31T06:35:05.143Z,19.33
2022-08-31T06:36:05.140Z,19.32
2022-08-31T06:37:05.123Z,19.47
2022-08-31T06:38:05.124Z,19.39
2022-08-31T06:39:05.108Z,19.47
2022-08-31T06:40:05.141Z,19.51
2022-08-31T06:41:05.086Z,19.48
2022-08-31T06:42:05.063Z,19.53
2022-08-31T06:43:05.079Z,19.54
2022-08-31T06:44:05.044Z,19.65
2022-08-31T06:45:05.038Z,19.66
2022-08-31T06:46:05.074Z,19.65
2022-08-31T06:47:05.009Z,19.65
2022-08-31T06:48:05.033Z,19.66
2022-08-31T06:49:04.988Z,19.70
2022-08-31T06:50:04.973Z,19.75
2022-08-31T06:51:04.965Z,19.70
2022-08-31T06:52:04.960Z,19.78
2022-08-31T06:53:04.960Z,19.78
2022-08-31T06:54:27.429Z,19.79
2022-08-31T06:55:05.938Z,19.86
2022-08-31T06:56:04.913Z,19.78
2022-08-31T06:57:04.899Z,19.84
2022-08-31T06:58:04.896Z,19.87
2022-08-31T06:59:04.872Z,19.83
2022-08-31T07:00:04.874Z,19.84
2022-08-31T07:01:04.902Z,19.87
2022-08-31T07:02:04.947Z,19.87
2022-08-31T07:03:04.889Z,19.90
2022-08-31T07:04:04.821Z,19.86
2022-08-31T07:05:04.806Z,19.87
2022-08-31T07:06:04.794Z,19.87
2022-08-31T07:07:04.785Z,19.97
2022-08-31T07:08:04.795Z,19.86
2022-08-31T07:09:04.767Z,19.91
2022-08-31T07:10:04.755Z,19.88
2022-08-31T07:11:04.737Z,19.84
2022-08-31T07:12:04.733Z,19.83
2022-08-31T07:13:04.735Z,19.83
2022-08-31T07:14:04.711Z,19.91
2022-08-31T07:15:04.698Z,19.87
2022-08-31T07:16:04.715Z,19.91
2022-08-31T07:17:04.688Z,19.95
2022-08-31T07:18:08.354Z,20.03
2022-08-31T07:19:05.648Z,20.06
2022-08-31T07:20:04.664Z,20.05
2022-08-31T07:21:04.631Z,20.08
2022-08-31T07:22:04.621Z,20.06
2022-08-31T07:23:04.614Z,20.05
2022-08-31T07:24:04.595Z,20.06
2022-08-31T07:25:04.587Z,20.06
2022-08-31T07:26:04.575Z,20.03
2022-08-31T07:27:04.620Z,20.23
2022-08-31T07:28:04.562Z,20.20
2022-08-31T07:29:04.535Z,20.30
2022-08-31T07:30:04.546Z,20.30
2022-08-31T07:31:04.565Z,20.30
2022-08-31T07:32:04.509Z,20.27
2022-08-31T07:33:04.511Z,20.31
2022-08-31T07:34:04.487Z,20.35
2022-08-31T07:35:04.473Z,20.38
2022-08-31T07:36:04.458Z,20.43
2022-08-31T07:37:04.445Z,20.46
2022-08-31T07:38:04.452Z,20.43
2022-08-31T07:39:04.428Z,20.62
2022-08-31T07:40:07.505Z,20.53
2022-08-31T07:41:04.489Z,20.59
2022-08-31T07:42:04.403Z,20.54
2022-08-31T07:43:04.452Z,20.65
2022-08-31T07:44:04.366Z,20.72
2022-08-31T07:45:04.356Z,20.65
2022-08-31T07:46:04.403Z,20.68
2022-08-31T07:47:04.339Z,20.66
2022-08-31T07:48:04.337Z,20.76
2022-08-31T07:49:04.317Z,20.84
2022-08-31T07:50:04.306Z,20.76
2022-08-31T07:51:04.296Z,20.81
2022-08-31T07:52:04.292Z,20.79
2022-08-31T07:53:04.289Z,20.86
2022-08-31T07:54:04.265Z,20.79
2022-08-31T07:55:04.255Z,20.84
2022-08-31T07:56:04.235Z,20.65
2022-08-31T07:57:04.227Z,20.79
2022-08-31T07:58:04.236Z,20.72
2022-08-31T07:59:04.205Z,20.74
2022-08-31T08:00:04.201Z,20.81
2022-08-31T08:01:04.195Z,20.80
2022-08-31T08:02:04.278Z,20.80
2022-08-31T08:03:04.196Z,20.80
2022-08-31T08:04:05.082Z,20.81
2022-08-31T08:05:04.148Z,20.96
2022-08-31T08:06:04.122Z,20.99
2022-08-31T08:07:04.110Z,20.96
2022-08-31T08:08:04.125Z,20.96
2022-08-31T08:09:22.233Z,20.91
2022-08-31T08:10:05.080Z,20.89
2022-08-31T08:11:04.068Z,20.79
2022-08-31T08:12:04.058Z,20.84
2022-08-31T08:13:15.967Z,20.84
2022-08-31T08:14:08.467Z,20.76
2022-08-31T08:15:04.017Z,20.81
2022-08-31T08:16:04.080Z,20.81
2022-08-31T08:17:03.993Z,20.80
2022-08-31T08:18:03.989Z,20.91
2022-08-31T08:19:03.990Z,20.91
2022-08-31T08:20:03.961Z,20.95
2022-08-31T08:21:03.949Z,20.93
2022-08-31T08:22:04.585Z,20.96
2022-08-31T08:23:03.935Z,20.96
2022-08-31T08:24:03.930Z,20.98
2022-08-31T08:25:03.913Z,21.09
2022-08-31T08:26:03.899Z,21.19
2022-08-31T08:27:03.886Z,21.13
2022-08-31T08:28:22.738Z,21.17
2022-08-31T08:29:04.868Z,21.24
2022-08-31T08:30:03.856Z,21.29
2022-08-31T08:31:03.885Z,21.27
2022-08-31T08:32:03.835Z,21.30
2022-08-31T08:33:03.853Z,21.24
2022-08-31T08:34:03.812Z,21.27
2022-08-31T08:35:03.798Z,21.29
2022-08-31T08:36:03.788Z,21.34
2022-08-31T08:37:03.774Z,21.29
2022-08-31T08:38:07.675Z,21.30
2022-08-31T08:39:03.745Z,21.32
2022-08-31T08:40:03.776Z,21.42
2022-08-31T08:41:03.731Z,21.46
2022-08-31T08:42:03.723Z,21.53
2022-08-31T08:43:03.839Z,21.59
2022-08-31T08:44:03.723Z,21.63
2022-08-31T08:45:03.680Z,21.57
2022-08-31T08:46:15.243Z,21.78
2022-08-31T08:47:04.656Z,21.83
2022-08-31T08:48:03.660Z,21.92
2022-08-31T08:49:03.638Z,21.90
2022-08-31T08:50:03.641Z,21.97
2022-08-31T08:51:03.614Z,21.95
2022-08-31T08:52:03.609Z,22.13
2022-08-31T08:53:03.603Z,22.17
2022-08-31T08:54:03.588Z,22.34
2022-08-31T08:55:03.567Z,22.32
2022-08-31T08:56:23.156Z,22.29
2022-08-31T08:57:04.564Z,22.32
2022-08-31T08:58:03.558Z,22.37
2022-08-31T08:59:05.431Z,22.34
2022-08-31T09:00:04.530Z,22.52
2022-08-31T09:01:03.554Z,22.43
2022-08-31T09:02:03.671Z,22.57
2022-08-31T09:03:03.613Z,22.50
2022-08-31T09:04:03.468Z,22.74
2022-08-31T09:05:03.458Z,22.57
2022-08-31T09:06:03.449Z,22.69
2022-08-31T09:07:03.442Z,22.82
2022-08-31T09:08:03.445Z,23.02
2022-08-31T09:09:03.424Z,23.15
2022-08-31T09:10:03.409Z,23.31
2022-08-31T09:11:03.403Z,23.39
2022-08-31T09:12:03.382Z,23.42
2022-08-31T09:13:03.406Z,23.38
2022-08-31T09:14:03.381Z,23.40
2022-08-31T09:15:03.354Z,23.52
2022-08-31T09:16:03.397Z,23.58
2022-08-31T09:17:03.323Z,23.67
2022-08-31T09:18:03.337Z,23.64
2022-08-31T09:19:03.306Z,23.76
2022-08-31T09:20:03.315Z,23.83
2022-08-31T09:21:03.277Z,23.86
2022-08-31T09:22:03.275Z,23.85
2022-08-31T09:23:03.275Z,23.85
2022-08-31T09:24:03.243Z,23.90
2022-08-31T09:25:03.241Z,23.98
2022-08-31T09:26:07.993Z,23.90
2022-08-31T09:27:04.223Z,24.05
2022-08-31T09:28:03.199Z,24.13
2022-08-31T09:29:03.200Z,24.20
2022-08-31T09:30:03.180Z,24.16
2022-08-31T09:31:03.234Z,24.32
2022-08-31T09:32:06.364Z,24.20
2022-08-31T09:33:03.155Z,24.24
2022-08-31T09:34:03.134Z,24.23
2022-08-31T09:35:03.123Z,24.29
2022-08-31T09:36:03.122Z,24.31
2022-08-31T09:37:03.102Z,24.22
2022-08-31T09:38:03.154Z,24.14
2022-08-31T09:39:03.080Z,24.14
2022-08-31T09:40:07.242Z,24.07
2022-08-31T09:41:03.099Z,24.10
2022-08-31T09:42:03.050Z,23.94
2022-08-31T09:43:03.045Z,23.98
2022-08-31T09:44:03.022Z,23.95
2022-08-31T09:45:03.005Z,23.97
2022-08-31T09:46:03.039Z,23.95
2022-08-31T09:47:03.015Z,24.04
2022-08-31T09:48:02.991Z,24.12
2022-08-31T09:49:02.985Z,24.45
2022-08-31T09:50:02.960Z,24.79
2022-08-31T09:51:02.937Z,25.15
2022-08-31T09:52:02.936Z,25.34
2022-08-31T09:53:02.919Z,25.47
2022-08-31T09:54:02.921Z,25.87
2022-08-31T09:55:02.909Z,25.89
2022-08-31T09:56:02.905Z,26.17
2022-08-31T09:57:02.879Z,26.29
2022-08-31T09:58:02.867Z,26.52
2022-08-31T09:59:02.906Z,26.77
2022-08-31T10:00:02.850Z,26.84
2022-08-31T10:01:02.862Z,27.09
2022-08-31T10:02:02.824Z,26.99
2022-08-31T10:03:06.557Z,27.06
2022-08-31T10:04:02.810Z,26.92
2022-08-31T10:05:02.829Z,26.67
2022-08-31T10:06:02.788Z,26.50
2022-08-31T10:07:02.771Z,26.58
2022-08-31T10:08:02.778Z,26.58
2022-08-31T10:09:02.765Z,26.79
2022-08-31T10:10:02.741Z,26.77
2022-08-31T10:11:02.727Z,26.77
2022-08-31T10:12:02.709Z,26.95
2022-08-31T10:13:02.696Z,26.95
2022-08-31T10:14:02.704Z,27.01
2022-08-31T10:15:02.778Z,27.05
2022-08-31T10:16:02.722Z,27.21
2022-08-31T10:17:02.716Z,27.10
2022-08-31T10:18:02.648Z,27.17
2022-08-31T10:19:02.640Z,27.48
2022-08-31T10:20:02.620Z,27.64
2022-08-31T10:21:02.608Z,27.84
2022-08-31T10:22:02.604Z,27.88
2022-08-31T10:23:02.600Z,27.92
2022-08-31T10:24:02.602Z,27.86
2022-08-31T10:25:02.565Z,28.13
2022-08-31T10:26:02.557Z,28.22
2022-08-31T10:27:02.545Z,27.96
2022-08-31T10:28:02.537Z,27.82
2022-08-31T10:29:02.539Z,27.92
2022-08-31T10:30:02.510Z,28.13
2022-08-31T10:31:02.563Z,28.21
2022-08-31T10:32:02.489Z,27.99
2022-08-31T10:33:02.483Z,27.96
2022-08-31T10:34:02.487Z,27.82
2022-08-31T10:35:02.461Z,27.62
2022-08-31T10:36:02.443Z,27.67
2022-08-31T10:37:02.441Z,27.64
2022-08-31T10:38:02.488Z,27.50
2022-08-31T10:39:02.432Z,27.41
2022-08-31T10:40:02.539Z,27.17
2022-08-31T10:41:02.390Z,26.98
2022-08-31T10:42:02.401Z,26.86
2022-08-31T10:43:02.379Z,26.79
2022-08-31T10:44:02.377Z,26.83
2022-08-31T10:45:02.350Z,26.96
2022-08-31T10:46:02.408Z,26.98
2022-08-31T10:47:02.322Z,26.95
2022-08-31T10:48:02.311Z,27.10
2022-08-31T10:49:02.303Z,27.16
2022-08-31T10:50:02.316Z,27.21
2022-08-31T10:51:02.279Z,27.26
2022-08-31T10:52:02.269Z,27.17
2022-08-31T10:53:02.924Z,27.31
2022-08-31T10:54:02.266Z,27.19
2022-08-31T10:55:02.235Z,27.26
2022-08-31T10:56:02.230Z,27.13
2022-08-31T10:57:02.218Z,27.06
2022-08-31T10:58:02.209Z,27.23
2022-08-31T10:59:02.211Z,27.33
2022-08-31T11:00:02.188Z,27.38
2022-08-31T11:01:02.264Z,27.24
2022-08-31T11:02:02.174Z,27.13
2022-08-31T11:03:02.157Z,27.17
2022-08-31T11:04:02.254Z,26.99
2022-08-31T11:05:02.224Z,26.55
2022-08-31T11:06:02.131Z,26.52
2022-08-31T11:07:02.116Z,26.50
2022-08-31T11:08:02.103Z,26.54
2022-08-31T11:09:02.106Z,26.69
2022-08-31T11:10:02.076Z,26.74
2022-08-31T11:11:02.062Z,26.77
2022-08-31T11:12:02.061Z,26.91
2022-08-31T11:13:02.076Z,27.01
2022-08-31T11:14:02.054Z,26.84
2022-08-31T11:15:02.028Z,26.89
2022-08-31T11:16:02.119Z,26.94
2022-08-31T11:17:02.007Z,26.64
2022-08-31T11:18:01.995Z,26.32
2022-08-31T11:19:05.002Z,26.05
2022-08-31T11:20:02.973Z,25.87
2022-08-31T11:21:01.955Z,25.84
2022-08-31T11:22:01.942Z,25.94
2022-08-31T11:23:01.965Z,25.99
2022-08-31T11:24:01.944Z,26.08
2022-08-31T11:25:01.914Z,26.18
2022-08-31T11:26:01.911Z,26.43
2022-08-31T11:27:01.909Z,26.65
2022-08-31T11:28:01.887Z,26.74
2022-08-31T11:29:01.957Z,26.83
2022-08-31T11:30:01.862Z,26.77
2022-08-31T11:31:01.998Z,26.84
2022-08-31T11:32:01.877Z,26.84
2022-08-31T11:33:01.848Z,26.83
2022-08-31T11:34:17.580Z,26.67
2022-08-31T11:35:02.810Z,26.77
2022-08-31T11:36:06.379Z,26.79
2022-08-31T11:37:02.786Z,26.91
2022-08-31T11:38:01.789Z,27.01
2022-08-31T11:39:01.769Z,27.02
2022-08-31T11:40:01.847Z,26.98
2022-08-31T11:41:01.744Z,27.06
2022-08-31T11:42:01.730Z,27.17
2022-08-31T11:43:01.723Z,27.28
2022-08-31T11:44:01.701Z,27.33
2022-08-31T11:45:01.724Z,27.11
2022-08-31T11:46:01.741Z,27.09
2022-08-31T11:47:01.670Z,26.92
2022-08-31T11:48:01.669Z,26.96
2022-08-31T11:49:01.647Z,26.89
2022-08-31T11:50:01.649Z,26.86
2022-08-31T11:51:01.627Z,26.83
2022-08-31T11:52:01.621Z,26.86
2022-08-31T11:53:01.606Z,26.83
2022-08-31T11:54:01.592Z,26.74
2022-08-31T11:55:01.603Z,26.79
2022-08-31T11:56:01.573Z,26.72
2022-08-31T11:57:01.558Z,26.59
2022-08-31T11:58:01.555Z,26.55
2022-08-31T11:59:01.547Z,26.35
2022-08-31T12:00:01.537Z,26.31
2022-08-31T12:01:01.531Z,26.27
2022-08-31T12:02:01.548Z,26.22
2022-08-31T12:03:01.494Z,26.35
2022-08-31T12:04:01.491Z,26.37
2022-08-31T12:05:01.598Z,26.42
2022-08-31T12:06:01.465Z,26.32
2022-08-31T12:07:01.462Z,26.29
2022-08-31T12:08:01.438Z,26.44
2022-08-31T12:09:01.441Z,26.57
2022-08-31T12:10:01.415Z,26.73
2022-08-31T12:11:01.420Z,26.77
2022-08-31T12:12:01.402Z,26.87
2022-08-31T12:13:01.386Z,27.09
2022-08-31T12:14:01.405Z,27.24
2022-08-31T12:15:01.371Z,27.42
2022-08-31T12:16:01.519Z,27.32
2022-08-31T12:17:01.350Z,27.43
2022-08-31T12:18:01.332Z,27.33
2022-08-31T12:19:01.343Z,27.33
2022-08-31T12:20:02.293Z,27.46
2022-08-31T12:21:01.298Z,27.47
2022-08-31T12:22:01.291Z,27.47
2022-08-31T12:23:01.288Z,27.54
2022-08-31T12:24:01.266Z,27.61
2022-08-31T12:25:01.264Z,27.69
2022-08-31T12:26:01.242Z,27.70
2022-08-31T12:27:01.246Z,27.77
2022-08-31T12:28:01.230Z,27.96
2022-08-31T12:29:01.209Z,28.10
2022-08-31T12:30:01.217Z,28.19
2022-08-31T12:31:01.235Z,28.26
2022-08-31T12:32:01.183Z,28.35
2022-08-31T12:33:01.167Z,28.53
2022-08-31T12:34:01.161Z,28.56
2022-08-31T12:35:01.156Z,28.50
2022-08-31T12:36:01.136Z,28.51
2022-08-31T12:37:01.120Z,28.51
2022-08-31T12:38:01.128Z,28.66
2022-08-31T12:39:01.108Z,28.60
2022-08-31T12:40:01.150Z,28.63
2022-08-31T12:41:01.084Z,28.62
2022-08-31T12:42:01.073Z,28.62
2022-08-31T12:43:01.059Z,28.70
2022-08-31T12:44:01.049Z,28.53
2022-08-31T12:45:01.074Z,28.48
2022-08-31T12:46:01.069Z,28.50
2022-08-31T12:47:01.013Z,28.38
2022-08-31T12:48:01.008Z,28.44
2022-08-31T12:49:00.995Z,28.36
2022-08-31T12:50:00.996Z,28.54
2022-08-31T12:51:01.042Z,28.59
2022-08-31T12:52:00.964Z,28.65